Weather at Boundary Bay Airport

Public forecast

Using degrees Celsius for public forecast. Weather courtesy of forecast.io.

Closest aviation weather report (METAR) to Boundary Bay Airport

Closest report is Vancouver International Airport, 9.9 nm (18.3 km) NW.

2024/05/28 23:00 (retrieved 1 hour ago)

CYVR 282300Z 22013KT 25SM SCT025 BKN090 15/08 A3008 RMK SC3AC2 SLP187

Closest aviation forecast (TAF) to Boundary Bay Airport

Closest forecast is Victoria Harbour Seaplane Base, 41.6 nm (77.0 km) SSW.

2024/05/28 21:00 (retrieved 3 hours ago)

TAF CYWH 282040Z 2821/2904 25012G22KT P6SM FEW030 BKN060 TEMPO 2821/2904 P6SM -SHRA BKN030 RMK NXT FCST BY 291400Z